Time;durP1;ratioP1;P1;durP2;ratioP2;P2;SDS_P1;SDS_P2;PMS_P1;PMS_P2;Temp;Humidity;BMP_temperature;BMP_pressure;BME280_temperature;BME280_humidity;BME280_pressure;Samples;Min_cycle;Max_cycle;Signal;HPM_P1;HPM_P2
2023/05/11 00:06:54;;;;;;;25.42;17.52;;;;;;;10.55;73.63;100292.41;20988741;28;20677;-77
2023/05/11 00:16:56;;;;;;;28.73;18.40;;;;;;;10.44;73.71;100290.28;20985332;28;20191;-89
2023/05/11 00:26:58;;;;;;;25.37;18.77;;;;;;;10.67;73.12;100282.34;20998588;28;20241;-83
2023/05/11 00:37:00;;;;;;;29.33;20.63;;;;;;;10.63;73.16;100293.50;20992399;28;20534;-77
2023/05/11 00:47:02;;;;;;;31.90;21.20;;;;;;;10.99;71.84;100293.66;20963278;28;20219;-77
2023/05/11 00:57:05;;;;;;;36.03;21.60;;;;;;;10.74;72.81;100286.25;20921551;28;20241;-76
2023/05/11 01:07:18;;;;;;;30.65;20.83;;;;;;;10.34;74.11;100282.22;20919237;28;20306;-76
2023/05/11 01:17:34;;;;;;;25.67;19.73;;;;;;;10.49;72.98;100279.63;20930901;28;20217;-79
2023/05/11 01:28:09;;;;;;;31.27;19.53;;;;;;;10.51;72.99;100287.78;20910491;28;20274;-79
2023/05/11 01:38:13;;;;;;;28.73;21.50;;;;;;;10.51;73.15;100293.41;20887534;28;20191;-77
2023/05/11 01:48:18;;;;;;;31.03;20.13;;;;;;;10.50;71.96;100292.59;20953518;28;20284;-76
2023/05/11 01:58:20;;;;;;;28.27;19.93;;;;;;;10.05;74.10;100298.00;21005599;28;20191;-76
2023/05/11 02:08:24;;;;;;;25.73;18.38;;;;;;;10.48;72.37;100305.34;20992660;28;20218;-77
2023/05/11 02:18:27;;;;;;;31.97;21.60;;;;;;;10.11;72.77;100307.91;21003543;28;20265;-82
2023/05/11 02:28:33;;;;;;;32.80;20.80;;;;;;;10.36;72.54;100313.72;20985571;28;20207;-77
2023/05/11 02:38:37;;;;;;;28.08;20.23;;;;;;;10.18;72.72;100307.38;20992779;28;20256;-77
2023/05/11 02:48:46;;;;;;;33.60;23.30;;;;;;;9.60;75.69;100316.59;20983791;28;20219;-76
2023/05/11 02:58:50;;;;;;;36.70;23.30;;;;;;;9.97;74.43;100312.94;20971063;28;20693;-77
2023/05/11 03:08:56;;;;;;;36.33;23.60;;;;;;;10.30;72.56;100310.31;20981532;28;20284;-76
2023/05/11 03:19:00;;;;;;;37.20;22.83;;;;;;;9.89;73.64;100316.66;20952436;28;20192;-77
2023/05/11 03:29:06;;;;;;;35.67;21.70;;;;;;;10.01;73.31;100315.94;20972488;28;20352;-77
2023/05/11 03:39:10;;;;;;;33.17;22.40;;;;;;;9.90;74.04;100319.13;20978546;28;20249;-77
2023/05/11 03:49:14;;;;;;;34.38;22.23;;;;;;;10.02;73.42;100314.75;20957342;28;20277;-77
2023/05/11 03:59:17;;;;;;;31.80;21.20;;;;;;;10.16;73.50;100302.06;21005248;28;20195;-77
2023/05/11 04:09:19;;;;;;;37.00;23.90;;;;;;;10.37;72.62;100295.63;20997048;28;20206;-77
2023/05/11 04:19:21;;;;;;;34.80;23.30;;;;;;;10.38;73.15;100302.94;21004708;28;20217;-76
2023/05/11 04:29:24;;;;;;;37.70;24.52;;;;;;;10.62;72.54;100306.78;20996149;28;20276;-78
2023/05/11 04:39:26;;;;;;;37.47;23.83;;;;;;;10.10;74.12;100317.53;21007995;28;20194;-76
2023/05/11 04:49:28;;;;;;;37.47;23.73;;;;;;;10.15;74.04;100313.69;20999561;28;20525;-76
2023/05/11 04:59:30;;;;;;;38.57;25.40;;;;;;;10.12;74.05;100315.19;21016497;28;20245;-76
2023/05/11 05:09:32;;;;;;;41.57;27.07;;;;;;;10.43;72.75;100326.16;20989886;28;20207;-76
2023/05/11 05:19:34;;;;;;;36.03;25.13;;;;;;;10.14;74.26;100346.72;20976750;28;20258;-77
2023/05/11 05:29:37;;;;;;;36.72;26.70;;;;;;;10.57;72.38;100354.97;20970063;28;20276;-82
2023/05/11 05:39:39;;;;;;;40.47;28.05;;;;;;;10.28;73.86;100352.97;21026594;28;20191;-82
2023/05/11 05:49:42;;;;;;;43.53;28.77;;;;;;;10.66;71.72;100357.75;21010266;28;20273;-76
2023/05/11 05:59:44;;;;;;;44.50;28.83;;;;;;;10.41;73.55;100367.16;21026127;28;20242;-76
2023/05/11 06:09:47;;;;;;;46.63;29.73;;;;;;;10.69;71.77;100379.66;20989681;28;20211;-76
2023/05/11 06:19:49;;;;;;;48.80;29.13;;;;;;;10.33;73.76;100376.53;21030568;28;20480;-76
2023/05/11 06:29:56;;;;;;;47.72;30.92;;;;;;;10.95;72.21;100373.81;20970073;28;20224;-77
2023/05/11 06:40:02;;;;;;;45.88;28.73;;;;;;;11.09;72.23;100370.72;20976843;28;20258;-77
2023/05/11 06:50:04;;;;;;;40.78;28.58;;;;;;;10.88;71.09;100382.81;21029621;28;20230;-76
2023/05/11 07:00:07;;;;;;;38.90;26.30;;;;;;;10.71;70.25;100374.50;20953169;28;20648;-77
2023/05/11 07:10:09;;;;;;;38.97;25.63;;;;;;;10.82;70.33;100389.88;20971116;28;20688;-76
2023/05/11 07:20:12;;;;;;;35.70;24.63;;;;;;;10.50;72.87;100388.56;20993229;28;20191;-76
2023/05/11 07:30:14;;;;;;;34.77;24.57;;;;;;;11.38;69.27;100378.31;20994726;28;20284;-76
2023/05/11 07:40:19;;;;;;;36.15;24.35;;;;;;;11.24;69.78;100384.22;20985201;28;20350;-76
2023/05/11 07:50:22;;;;;;;37.37;25.53;;;;;;;11.30;68.34;100388.47;20899719;28;20697;-76
2023/05/11 08:00:26;;;;;;;34.83;23.73;;;;;;;12.10;66.92;100383.34;20933667;28;20589;-76
2023/05/11 08:10:28;;;;;;;28.52;22.17;;;;;;;11.68;67.25;100380.63;20962134;28;20233;-76
2023/05/11 08:20:30;;;;;;;34.17;22.42;;;;;;;12.12;62.72;100383.81;20982026;28;20288;-77
2023/05/11 08:30:32;;;;;;;32.10;22.45;;;;;;;12.47;59.69;100386.22;20985554;28;20589;-77
2023/05/11 08:40:35;;;;;;;28.00;21.23;;;;;;;12.85;61.31;100383.81;21078116;28;20203;-77
2023/05/11 08:50:37;;;;;;;26.58;18.77;;;;;;;12.98;57.47;100379.78;21000712;28;20280;-77
2023/05/11 09:00:40;;;;;;;26.98;19.92;;;;;;;13.12;59.77;100378.59;21004528;28;20196;-77
2023/05/11 09:11:05;;;;;;;25.30;20.80;;;;;;;12.99;58.21;100387.13;20980146;28;20227;-77
2023/05/11 09:21:07;;;;;;;23.90;17.33;;;;;;;13.20;57.93;100380.47;21005144;28;20249;-77
2023/05/11 09:31:09;;;;;;;23.45;18.25;;;;;;;13.30;60.72;100383.63;20989872;28;20586;-82
2023/05/11 09:41:18;;;;;;;20.23;15.60;;;;;;;13.32;56.98;100384.09;20981697;28;20303;-78
2023/05/11 09:51:31;;;;;;;15.77;11.97;;;;;;;13.40;57.77;100370.94;20970813;28;21010;-78
2023/05/11 10:01:33;;;;;;;14.35;12.85;;;;;;;13.15;54.94;100377.88;20970607;28;20199;-77
2023/05/11 10:11:37;;;;;;;15.55;13.43;;;;;;;13.25;55.74;100368.88;20992571;28;20268;-78
2023/05/11 10:21:40;;;;;;;12.48;11.18;;;;;;;13.14;54.11;100374.22;21027350;28;20244;-78
2023/05/11 10:31:43;;;;;;;14.13;12.75;;;;;;;13.14;57.33;100371.38;20996368;28;20673;-78
2023/05/11 10:41:54;;;;;;;11.48;10.38;;;;;;;13.65;53.40;100354.63;20952136;28;20947;-78
2023/05/11 10:52:08;;;;;;;10.18;9.10;;;;;;;13.57;56.34;100356.44;20975664;28;20218;-79
2023/05/11 11:02:10;;;;;;;10.75;9.38;;;;;;;14.29;53.88;100354.31;20975536;28;20187;-79
2023/05/11 11:12:13;;;;;;;10.95;8.30;;;;;;;13.78;55.29;100351.38;20988302;28;20241;-80
2023/05/11 11:22:33;;;;;;;9.73;8.73;;;;;;;13.85;54.22;100335.75;20992203;28;20217;-79
2023/05/11 11:32:36;;;;;;;9.82;8.82;;;;;;;14.50;53.28;100332.16;20960921;28;20226;-79
2023/05/11 11:42:40;;;;;;;10.05;8.88;;;;;;;13.63;55.88;100332.28;20984564;28;20639;-79
2023/05/11 11:52:42;;;;;;;8.68;7.75;;;;;;;15.06;50.48;100333.81;20951934;28;20249;-78
2023/05/11 12:02:45;;;;;;;13.45;9.82;;;;;;;13.86;53.57;100337.38;20974314;28;20195;-79
2023/05/11 12:12:49;;;;;;;9.32;8.32;;;;;;;13.70;56.08;100335.34;20962081;28;20257;-79
2023/05/11 12:22:52;;;;;;;9.70;8.30;;;;;;;13.04;58.58;100341.53;20986551;28;20187;-79
2023/05/11 12:32:54;;;;;;;11.15;10.00;;;;;;;14.00;55.67;100323.56;20978255;28;20288;-78
2023/05/11 12:42:59;;;;;;;13.48;11.25;;;;;;;13.43;56.42;100322.84;20998278;28;20241;-78
2023/05/11 12:53:17;;;;;;;13.18;9.68;;;;;;;13.31;58.75;100319.25;20955936;28;20215;-78
2023/05/11 13:03:24;;;;;;;11.40;9.20;;;;;;;12.53;67.99;100340.31;20992013;28;20599;-77
2023/05/11 13:13:27;;;;;;;14.93;10.73;;;;;;;12.15;69.45;100349.16;20991438;28;20484;-76
2023/05/11 13:23:30;;;;;;;15.25;10.93;;;;;;;11.79;71.30;100349.09;20984873;28;20234;-84
2023/05/11 13:33:33;;;;;;;16.10;11.07;;;;;;;;;;20979479;28;20596;-76
2023/05/11 13:43:35;;;;;;;10.13;8.52;;;;;;;12.17;72.11;100332.63;20989058;28;20273;-84
2023/05/11 13:53:37;;;;;;;11.18;8.93;;;;;;;12.42;73.61;100333.50;20990983;28;20237;-82
2023/05/11 14:03:39;;;;;;;10.85;8.88;;;;;;;12.32;74.09;100334.78;20971314;28;20218;-77
2023/05/11 14:13:41;;;;;;;12.57;8.23;;;;;;;12.34;71.27;100337.25;20965241;28;20595;-76
2023/05/11 14:23:43;;;;;;;12.18;9.80;;;;;;;12.48;72.45;100348.22;21001137;28;20211;-77
2023/05/11 14:34:05;;;;;;;13.30;9.45;;;;;;;12.37;74.06;100357.19;20985823;28;20187;-83
2023/05/11 14:44:08;;;;;;;10.77;9.65;;;;;;;12.14;74.79;100356.00;20982805;28;20242;-86
2023/05/11 14:54:10;;;;;;;10.17;9.17;;;;;;;11.97;74.93;100361.84;20986028;28;20583;-82
2023/05/11 15:04:14;;;;;;;14.67;10.10;;;;;;;11.79;76.28;100360.41;20989118;28;20272;-83
2023/05/11 15:14:16;;;;;;;13.33;8.63;;;;;;;11.94;73.83;100352.06;20998229;28;20245;-77
2023/05/11 15:24:18;;;;;;;6.57;5.87;;;;;;;12.09;72.39;100347.72;20998715;28;20211;-79
2023/05/11 15:34:20;;;;;;;7.65;6.90;;;;;;;12.50;70.96;100343.88;20969169;28;20199;-80
2023/05/11 15:44:23;;;;;;;7.73;6.80;;;;;;;12.09;74.25;100370.34;20942723;28;20620;-82
2023/05/11 15:54:25;;;;;;;9.90;8.23;;;;;;;12.33;73.03;100361.91;20983825;28;20179;-82
2023/05/11 16:04:27;;;;;;;8.25;7.45;;;;;;;11.57;77.43;100373.78;20985573;28;20237;-76
2023/05/11 16:14:30;;;;;;;10.45;7.55;;;;;;;11.75;76.19;100371.59;20987639;28;20975;-77
2023/05/11 16:24:32;;;;;;;6.72;6.13;;;;;;;11.92;73.59;100362.06;20988103;28;20207;-78
2023/05/11 16:34:35;;;;;;;6.78;6.10;;;;;;;12.15;71.78;100357.66;21010671;28;20199;-80
2023/05/11 16:44:38;;;;;;;10.82;8.73;;;;;;;11.64;74.61;100359.88;20992100;28;20272;-78
2023/05/11 16:54:40;;;;;;;5.30;4.72;;;;;;;12.01;71.89;100352.31;20975848;28;20730;-76
2023/05/11 17:04:42;;;;;;;5.55;4.50;;;;;;;12.13;72.01;100353.50;21002786;28;20206;-76
2023/05/11 17:14:44;;;;;;;2.92;1.20;;;;;;;11.11;72.44;100354.25;20976975;28;20712;-76
2023/05/11 17:24:46;;;;;;;1.97;1.80;;;;;;;11.20;71.45;100353.00;20980535;28;20211;-76
2023/05/11 17:34:48;;;;;;;3.47;1.90;;;;;;;11.29;74.55;100361.38;20991064;28;20576;-75
2023/05/11 17:44:50;;;;;;;2.67;1.75;;;;;;;11.36;73.15;100347.56;20989804;28;20227;-76
2023/05/11 17:54:52;;;;;;;3.27;3.07;;;;;;;11.38;71.15;100356.53;20990661;28;20222;-76
2023/05/11 18:04:55;;;;;;;3.70;2.10;;;;;;;11.10;72.89;100366.72;20982116;28;20312;-82
2023/05/11 18:14:58;;;;;;;3.90;3.58;;;;;;;11.05;74.83;100369.75;20977825;28;20669;-77
2023/05/11 18:25:01;;;;;;;6.13;4.13;;;;;;;11.36;75.33;100369.34;20955506;28;20672;-81
2023/05/11 18:35:03;;;;;;;5.60;4.63;;;;;;;11.43;74.56;100376.06;20937668;28;20198;-77
2023/05/11 18:45:06;;;;;;;6.60;5.43;;;;;;;11.46;75.14;100375.41;20936545;28;20559;-76
2023/05/11 18:55:09;;;;;;;7.57;6.17;;;;;;;11.36;75.88;100370.19;20899174;28;20249;-77
2023/05/11 19:05:11;;;;;;;7.63;6.80;;;;;;;11.75;74.02;100377.25;20882704;28;20258;-76
2023/05/11 19:15:13;;;;;;;8.83;7.53;;;;;;;11.36;75.89;100387.13;21403313;22;20235;-77
2023/05/11 19:25:16;;;;;;;10.48;7.25;;;;;;;11.52;74.58;100395.78;20901724;28;20227;-77
2023/05/11 19:35:19;;;;;;;10.57;9.38;;;;;;;11.14;76.71;100401.56;20878958;28;20237;-76
2023/05/11 19:45:21;;;;;;;11.45;9.38;;;;;;;11.39;76.45;100409.03;20851606;28;20595;-82
2023/05/11 19:55:23;;;;;;;11.88;9.82;;;;;;;11.32;76.08;100397.44;20812292;28;20254;-77
2023/05/11 20:05:25;;;;;;;11.90;10.70;;;;;;;11.59;74.69;100396.88;20820996;28;20275;-77
2023/05/11 20:15:27;;;;;;;14.93;11.40;;;;;;;11.68;74.06;100396.78;20797731;28;20221;-77
2023/05/11 20:25:29;;;;;;;14.48;11.05;;;;;;;11.79;74.57;100397.16;20812103;28;20290;-77
2023/05/11 20:35:32;;;;;;;16.58;12.32;;;;;;;11.61;75.49;100390.88;20797042;28;20201;-78
2023/05/11 20:45:35;;;;;;;19.10;13.85;;;;;;;11.48;76.06;100383.53;20799434;28;20265;-78
2023/05/11 20:55:37;;;;;;;16.70;13.80;;;;;;;11.60;75.44;100384.41;20803325;28;20197;-77
2023/05/11 21:05:39;;;;;;;16.23;13.03;;;;;;;11.67;73.91;100369.69;20810293;28;20271;-77
2023/05/11 21:15:41;;;;;;;18.20;13.13;;;;;;;11.36;75.79;100375.00;20820355;28;20228;-77
2023/05/11 21:25:43;;;;;;;16.73;12.27;;;;;;;11.04;75.89;100365.25;20821077;28;20247;-77
2023/05/11 21:35:46;;;;;;;16.50;13.32;;;;;;;11.05;76.11;100364.91;20828744;28;20192;-77
2023/05/11 21:45:49;;;;;;;16.73;13.70;;;;;;;11.02;76.95;100353.47;20812970;28;20220;-78
2023/05/11 21:55:51;;;;;;;16.37;13.23;;;;;;;10.91;76.30;100355.91;20829662;28;20192;-78
2023/05/11 22:05:53;;;;;;;16.67;13.63;;;;;;;10.76;78.24;100346.03;20828090;28;20254;-78
2023/05/11 22:15:55;;;;;;;16.67;13.73;;;;;;;11.13;76.46;100349.88;20794131;28;20225;-80
2023/05/11 22:25:57;;;;;;;15.07;11.20;;;;;;;10.71;78.11;100337.78;20740510;28;20351;-78
2023/05/11 22:35:59;;;;;;;18.27;12.43;;;;;;;10.82;78.31;100338.19;20732584;28;20513;-80
2023/05/11 22:46:02;;;;;;;10.48;8.10;;;;;;;10.69;78.71;100316.72;20755444;28;20232;-79
2023/05/11 22:56:06;;;;;;;11.37;9.27;;;;;;;10.40;79.96;100314.72;20725111;28;20193;-79
2023/05/11 23:06:08;;;;;;;18.67;14.13;;;;;;;10.91;77.99;100307.88;20723267;28;20561;-79
2023/05/11 23:16:10;;;;;;;22.80;16.10;;;;;;;10.78;78.86;100309.00;20777548;28;20255;-79
2023/05/11 23:26:12;;;;;;;17.58;14.80;;;;;;;11.08;78.17;100298.44;20793470;28;20825;-78
2023/05/11 23:36:14;;;;;;;20.40;16.10;;;;;;;10.67;80.07;100290.81;20820924;28;20196;-79
2023/05/11 23:46:17;;;;;;;21.43;17.33;;;;;;;10.83;79.70;100289.84;20819647;28;20212;-81
2023/05/11 23:56:19;;;;;;;26.27;19.23;;;;;;;11.06;78.02;100281.00;20819285;28;20601;-78
